sensor_id;sensor_type;location;lat;lon;timestamp;pressure;altitude;pressure_sealevel;temperature
19040;BMP180;9652;49.014;12.052;2023-04-15T00:01:06;96669.00;;;10.50
19040;BMP180;9652;49.014;12.052;2023-04-15T00:03:33;96655.00;;;10.50
19040;BMP180;9652;49.014;12.052;2023-04-15T00:06:00;96651.00;;;10.50
19040;BMP180;9652;49.014;12.052;2023-04-15T00:08:28;96663.00;;;10.50
19040;BMP180;9652;49.014;12.052;2023-04-15T00:10:55;96672.00;;;10.50
19040;BMP180;9652;49.014;12.052;2023-04-15T00:13:24;96651.00;;;10.40
19040;BMP180;9652;49.014;12.052;2023-04-15T00:15:51;96667.00;;;10.50
19040;BMP180;9652;49.014;12.052;2023-04-15T00:18:19;96666.00;;;10.40
19040;BMP180;9652;49.014;12.052;2023-04-15T00:20:46;96644.00;;;10.40
19040;BMP180;9652;49.014;12.052;2023-04-15T00:23:13;96651.00;;;10.40
19040;BMP180;9652;49.014;12.052;2023-04-15T00:25:40;96652.00;;;10.40
19040;BMP180;9652;49.014;12.052;2023-04-15T00:28:07;96652.00;;;10.50
19040;BMP180;9652;49.014;12.052;2023-04-15T00:30:35;96645.00;;;10.50
19040;BMP180;9652;49.014;12.052;2023-04-15T00:33:02;96629.00;;;10.40
19040;BMP180;9652;49.014;12.052;2023-04-15T00:35:30;96639.00;;;10.50
19040;BMP180;9652;49.014;12.052;2023-04-15T00:37:58;96639.00;;;10.40
19040;BMP180;9652;49.014;12.052;2023-04-15T00:40:25;96628.00;;;10.40
19040;BMP180;9652;49.014;12.052;2023-04-15T00:42:52;96623.00;;;10.40
19040;BMP180;9652;49.014;12.052;2023-04-15T00:45:20;96609.00;;;10.40
19040;BMP180;9652;49.014;12.052;2023-04-15T00:47:47;96611.00;;;10.00
19040;BMP180;9652;49.014;12.052;2023-04-15T00:50:14;96598.00;;;10.40
19040;BMP180;9652;49.014;12.052;2023-04-15T00:52:43;96636.00;;;10.50
19040;BMP180;9652;49.014;12.052;2023-04-15T00:55:10;96619.00;;;10.50
19040;BMP180;9652;49.014;12.052;2023-04-15T00:57:38;96622.00;;;10.50
19040;BMP180;9652;49.014;12.052;2023-04-15T01:00:07;96633.00;;;10.50
19040;BMP180;9652;49.014;12.052;2023-04-15T01:02:36;96613.00;;;10.50
19040;BMP180;9652;49.014;12.052;2023-04-15T01:05:04;96609.00;;;10.50
19040;BMP180;9652;49.014;12.052;2023-04-15T01:07:32;96624.00;;;10.50
19040;BMP180;9652;49.014;12.052;2023-04-15T01:10:02;96607.00;;;10.50
19040;BMP180;9652;49.014;12.052;2023-04-15T01:12:31;96635.00;;;10.60
19040;BMP180;9652;49.014;12.052;2023-04-15T01:15:00;96619.00;;;10.60
19040;BMP180;9652;49.014;12.052;2023-04-15T01:17:28;96619.00;;;10.60
19040;BMP180;9652;49.014;12.052;2023-04-15T01:19:55;96631.00;;;10.60
19040;BMP180;9652;49.014;12.052;2023-04-15T01:22:23;96630.00;;;10.60
19040;BMP180;9652;49.014;12.052;2023-04-15T01:25:03;96625.00;;;10.60
19040;BMP180;9652;49.014;12.052;2023-04-15T01:27:38;96626.00;;;10.60
19040;BMP180;9652;49.014;12.052;2023-04-15T01:30:07;96628.00;;;10.60
19040;BMP180;9652;49.014;12.052;2023-04-15T01:32:35;96617.00;;;10.60
19040;BMP180;9652;49.014;12.052;2023-04-15T01:35:02;96618.00;;;10.60
19040;BMP180;9652;49.014;12.052;2023-04-15T01:37:30;96618.00;;;10.70
19040;BMP180;9652;49.014;12.052;2023-04-15T01:39:57;96626.00;;;10.70
19040;BMP180;9652;49.014;12.052;2023-04-15T01:42:24;96627.00;;;10.70
19040;BMP180;9652;49.014;12.052;2023-04-15T01:44:53;96615.00;;;10.70
19040;BMP180;9652;49.014;12.052;2023-04-15T01:47:21;96623.00;;;10.70
19040;BMP180;9652;49.014;12.052;2023-04-15T01:49:48;96610.00;;;10.70
19040;BMP180;9652;49.014;12.052;2023-04-15T01:52:15;96623.00;;;10.70
19040;BMP180;9652;49.014;12.052;2023-04-15T01:54:42;96622.00;;;10.70
19040;BMP180;9652;49.014;12.052;2023-04-15T01:57:11;96594.00;;;10.70
19040;BMP180;9652;49.014;12.052;2023-04-15T01:59:38;96596.00;;;10.70
19040;BMP180;9652;49.014;12.052;2023-04-15T02:02:07;96617.00;;;10.70
19040;BMP180;9652;49.014;12.052;2023-04-15T02:04:34;96617.00;;;10.70
19040;BMP180;9652;49.014;12.052;2023-04-15T02:07:01;96614.00;;;10.70
19040;BMP180;9652;49.014;12.052;2023-04-15T02:09:28;96618.00;;;10.50
19040;BMP180;9652;49.014;12.052;2023-04-15T02:11:56;96625.00;;;10.70
19040;BMP180;9652;49.014;12.052;2023-04-15T02:14:23;96596.00;;;10.70
19040;BMP180;9652;49.014;12.052;2023-04-15T02:16:53;96616.00;;;10.70
19040;BMP180;9652;49.014;12.052;2023-04-15T02:19:21;96617.00;;;10.70
19040;BMP180;9652;49.014;12.052;2023-04-15T02:21:48;96609.00;;;10.70
19040;BMP180;9652;49.014;12.052;2023-04-15T02:24:17;96613.00;;;10.70
19040;BMP180;9652;49.014;12.052;2023-04-15T02:26:44;96598.00;;;10.70
19040;BMP180;9652;49.014;12.052;2023-04-15T02:29:11;96615.00;;;10.70
19040;BMP180;9652;49.014;12.052;2023-04-15T02:31:39;96612.00;;;10.70
19040;BMP180;9652;49.014;12.052;2023-04-15T02:34:07;96610.00;;;10.70
19040;BMP180;9652;49.014;12.052;2023-04-15T02:36:35;96617.00;;;10.70
19040;BMP180;9652;49.014;12.052;2023-04-15T02:39:04;96605.00;;;10.70
19040;BMP180;9652;49.014;12.052;2023-04-15T02:41:31;96621.00;;;10.70
19040;BMP180;9652;49.014;12.052;2023-04-15T02:43:58;96618.00;;;10.60
19040;BMP180;9652;49.014;12.052;2023-04-15T02:46:28;96615.00;;;10.60
19040;BMP180;9652;49.014;12.052;2023-04-15T02:48:56;96590.00;;;10.60
19040;BMP180;9652;49.014;12.052;2023-04-15T02:51:24;96625.00;;;10.60
19040;BMP180;9652;49.014;12.052;2023-04-15T02:53:53;96604.00;;;10.50
19040;BMP180;9652;49.014;12.052;2023-04-15T02:56:21;96618.00;;;10.50
19040;BMP180;9652;49.014;12.052;2023-04-15T02:58:48;96621.00;;;10.50
19040;BMP180;9652;49.014;12.052;2023-04-15T03:01:16;96622.00;;;10.50
19040;BMP180;9652;49.014;12.052;2023-04-15T03:03:43;96601.00;;;10.40
19040;BMP180;9652;49.014;12.052;2023-04-15T03:06:10;96612.00;;;10.40
19040;BMP180;9652;49.014;12.052;2023-04-15T03:08:37;96589.00;;;10.30
19040;BMP180;9652;49.014;12.052;2023-04-15T03:11:06;96611.00;;;10.30
19040;BMP180;9652;49.014;12.052;2023-04-15T03:13:35;96600.00;;;10.30
19040;BMP180;9652;49.014;12.052;2023-04-15T03:16:10;96610.00;;;10.20
19040;BMP180;9652;49.014;12.052;2023-04-15T03:18:37;96607.00;;;10.20
19040;BMP180;9652;49.014;12.052;2023-04-15T03:21:05;96549.00;;;10.20
19040;BMP180;9652;49.014;12.052;2023-04-15T03:23:35;96613.00;;;10.20
19040;BMP180;9652;49.014;12.052;2023-04-15T03:26:02;96592.00;;;10.20
19040;BMP180;9652;49.014;12.052;2023-04-15T03:28:32;96614.00;;;10.20
19040;BMP180;9652;49.014;12.052;2023-04-15T03:31:00;96607.00;;;10.20
19040;BMP180;9652;49.014;12.052;2023-04-15T03:33:27;96605.00;;;10.20
19040;BMP180;9652;49.014;12.052;2023-04-15T03:35:54;96590.00;;;10.10
19040;BMP180;9652;49.014;12.052;2023-04-15T03:38:22;96609.00;;;10.10
19040;BMP180;9652;49.014;12.052;2023-04-15T03:40:49;96609.00;;;10.10
19040;BMP180;9652;49.014;12.052;2023-04-15T03:43:16;96620.00;;;10.20
19040;BMP180;9652;49.014;12.052;2023-04-15T03:45:44;96606.00;;;10.10
19040;BMP180;9652;49.014;12.052;2023-04-15T03:48:11;96609.00;;;10.20
19040;BMP180;9652;49.014;12.052;2023-04-15T03:50:38;96615.00;;;10.10
19040;BMP180;9652;49.014;12.052;2023-04-15T03:53:05;96598.00;;;10.10
19040;BMP180;9652;49.014;12.052;2023-04-15T03:55:32;96613.00;;;10.10
19040;BMP180;9652;49.014;12.052;2023-04-15T03:58:00;96590.00;;;10.10
19040;BMP180;9652;49.014;12.052;2023-04-15T04:00:27;96606.00;;;10.00
19040;BMP180;9652;49.014;12.052;2023-04-15T04:02:55;96610.00;;;10.00
19040;BMP180;9652;49.014;12.052;2023-04-15T04:05:23;96605.00;;;10.00
19040;BMP180;9652;49.014;12.052;2023-04-15T04:07:50;96605.00;;;10.00
19040;BMP180;9652;49.014;12.052;2023-04-15T04:10:17;96608.00;;;9.90
19040;BMP180;9652;49.014;12.052;2023-04-15T04:12:44;96576.00;;;9.90
19040;BMP180;9652;49.014;12.052;2023-04-15T04:15:11;96584.00;;;9.90
19040;BMP180;9652;49.014;12.052;2023-04-15T04:17:38;96613.00;;;9.90
19040;BMP180;9652;49.014;12.052;2023-04-15T04:20:08;96612.00;;;9.90
19040;BMP180;9652;49.014;12.052;2023-04-15T04:22:37;96616.00;;;9.80
19040;BMP180;9652;49.014;12.052;2023-04-15T04:25:05;96630.00;;;9.80
19040;BMP180;9652;49.014;12.052;2023-04-15T04:27:33;96619.00;;;9.80
19040;BMP180;9652;49.014;12.052;2023-04-15T04:30:00;96617.00;;;9.80
19040;BMP180;9652;49.014;12.052;2023-04-15T04:32:27;96631.00;;;9.70
19040;BMP180;9652;49.014;12.052;2023-04-15T04:34:54;96625.00;;;9.70
19040;BMP180;9652;49.014;12.052;2023-04-15T04:37:23;96628.00;;;9.70
19040;BMP180;9652;49.014;12.052;2023-04-15T04:39:50;96635.00;;;9.60
19040;BMP180;9652;49.014;12.052;2023-04-15T04:42:17;96646.00;;;9.50
19040;BMP180;9652;49.014;12.052;2023-04-15T04:44:44;96636.00;;;9.60
19040;BMP180;9652;49.014;12.052;2023-04-15T04:47:11;96631.00;;;9.50
19040;BMP180;9652;49.014;12.052;2023-04-15T04:49:38;96645.00;;;9.50
19040;BMP180;9652;49.014;12.052;2023-04-15T04:52:06;96632.00;;;9.50
19040;BMP180;9652;49.014;12.052;2023-04-15T04:54:34;96641.00;;;9.50
19040;BMP180;9652;49.014;12.052;2023-04-15T04:57:02;96645.00;;;9.50
19040;BMP180;9652;49.014;12.052;2023-04-15T04:59:29;96647.00;;;9.50
19040;BMP180;9652;49.014;12.052;2023-04-15T05:01:56;96656.00;;;9.50
19040;BMP180;9652;49.014;12.052;2023-04-15T05:04:23;96658.00;;;9.50
19040;BMP180;9652;49.014;12.052;2023-04-15T05:06:51;96648.00;;;9.50
19040;BMP180;9652;49.014;12.052;2023-04-15T05:09:18;96654.00;;;9.50
19040;BMP180;9652;49.014;12.052;2023-04-15T05:11:46;96647.00;;;9.50
19040;BMP180;9652;49.014;12.052;2023-04-15T05:14:13;96670.00;;;9.50
19040;BMP180;9652;49.014;12.052;2023-04-15T05:16:40;96661.00;;;9.50
19040;BMP180;9652;49.014;12.052;2023-04-15T05:19:07;96645.00;;;9.50
19040;BMP180;9652;49.014;12.052;2023-04-15T05:21:34;96656.00;;;9.50
19040;BMP180;9652;49.014;12.052;2023-04-15T05:24:02;96654.00;;;9.50
19040;BMP180;9652;49.014;12.052;2023-04-15T05:26:29;96652.00;;;9.50
19040;BMP180;9652;49.014;12.052;2023-04-15T05:28:58;96644.00;;;9.50
19040;BMP180;9652;49.014;12.052;2023-04-15T05:31:25;96661.00;;;9.50
19040;BMP180;9652;49.014;12.052;2023-04-15T05:33:52;96656.00;;;9.50
19040;BMP180;9652;49.014;12.052;2023-04-15T05:36:19;96653.00;;;9.50
19040;BMP180;9652;49.014;12.052;2023-04-15T05:38:46;96655.00;;;9.40
19040;BMP180;9652;49.014;12.052;2023-04-15T05:41:14;96653.00;;;9.50
19040;BMP180;9652;49.014;12.052;2023-04-15T05:43:41;96653.00;;;9.40
19040;BMP180;9652;49.014;12.052;2023-04-15T05:46:10;96654.00;;;9.40
19040;BMP180;9652;49.014;12.052;2023-04-15T05:48:37;96644.00;;;9.30
19040;BMP180;9652;49.014;12.052;2023-04-15T05:51:04;96652.00;;;9.30
19040;BMP180;9652;49.014;12.052;2023-04-15T05:53:32;96667.00;;;9.30
19040;BMP180;9652;49.014;12.052;2023-04-15T05:55:59;96660.00;;;9.20
19040;BMP180;9652;49.014;12.052;2023-04-15T05:58:26;96658.00;;;9.20
19040;BMP180;9652;49.014;12.052;2023-04-15T06:00:53;96664.00;;;9.20
19040;BMP180;9652;49.014;12.052;2023-04-15T06:03:21;96666.00;;;8.90
19040;BMP180;9652;49.014;12.052;2023-04-15T06:05:48;96662.00;;;9.20
19040;BMP180;9652;49.014;12.052;2023-04-15T06:08:15;96663.00;;;9.20
19040;BMP180;9652;49.014;12.052;2023-04-15T06:10:43;96665.00;;;9.20
19040;BMP180;9652;49.014;12.052;2023-04-15T06:13:10;96661.00;;;9.20
19040;BMP180;9652;49.014;12.052;2023-04-15T06:15:38;96623.00;;;9.20
19040;BMP180;9652;49.014;12.052;2023-04-15T06:18:05;96659.00;;;9.20
19040;BMP180;9652;49.014;12.052;2023-04-15T06:20:34;96662.00;;;9.30
19040;BMP180;9652;49.014;12.052;2023-04-15T06:23:01;96655.00;;;9.30
19040;BMP180;9652;49.014;12.052;2023-04-15T06:25:28;96668.00;;;9.30
19040;BMP180;9652;49.014;12.052;2023-04-15T06:27:55;96655.00;;;9.30
19040;BMP180;9652;49.014;12.052;2023-04-15T06:30:22;96662.00;;;9.40
19040;BMP180;9652;49.014;12.052;2023-04-15T06:32:49;96645.00;;;9.30
19040;BMP180;9652;49.014;12.052;2023-04-15T06:35:17;96667.00;;;9.30
19040;BMP180;9652;49.014;12.052;2023-04-15T06:37:45;96660.00;;;9.30
19040;BMP180;9652;49.014;12.052;2023-04-15T06:40:13;96664.00;;;9.30
19040;BMP180;9652;49.014;12.052;2023-04-15T06:42:40;96665.00;;;9.40
19040;BMP180;9652;49.014;12.052;2023-04-15T06:45:09;96665.00;;;9.40
19040;BMP180;9652;49.014;12.052;2023-04-15T06:47:36;96651.00;;;9.40
19040;BMP180;9652;49.014;12.052;2023-04-15T06:50:04;96671.00;;;9.40
19040;BMP180;9652;49.014;12.052;2023-04-15T06:52:31;96661.00;;;9.40
19040;BMP180;9652;49.014;12.052;2023-04-15T06:55:00;96641.00;;;9.30
19040;BMP180;9652;49.014;12.052;2023-04-15T06:57:27;96671.00;;;9.40
19040;BMP180;9652;49.014;12.052;2023-04-15T06:59:55;96686.00;;;9.40
19040;BMP180;9652;49.014;12.052;2023-04-15T07:02:22;96677.00;;;9.30
19040;BMP180;9652;49.014;12.052;2023-04-15T07:04:49;96676.00;;;9.40
19040;BMP180;9652;49.014;12.052;2023-04-15T07:07:16;96688.00;;;9.40
19040;BMP180;9652;49.014;12.052;2023-04-15T07:09:43;96676.00;;;9.40
19040;BMP180;9652;49.014;12.052;2023-04-15T07:12:12;96653.00;;;9.30
19040;BMP180;9652;49.014;12.052;2023-04-15T07:14:39;96668.00;;;9.40
19040;BMP180;9652;49.014;12.052;2023-04-15T07:17:07;96656.00;;;9.40
19040;BMP180;9652;49.014;12.052;2023-04-15T07:19:34;96660.00;;;9.40
19040;BMP180;9652;49.014;12.052;2023-04-15T07:22:01;96657.00;;;9.40
19040;BMP180;9652;49.014;12.052;2023-04-15T07:24:28;96682.00;;;9.50
19040;BMP180;9652;49.014;12.052;2023-04-15T07:26:56;96678.00;;;9.50
19040;BMP180;9652;49.014;12.052;2023-04-15T07:29:25;96679.00;;;9.50
19040;BMP180;9652;49.014;12.052;2023-04-15T07:31:52;96684.00;;;9.60
19040;BMP180;9652;49.014;12.052;2023-04-15T07:34:21;96683.00;;;9.70
19040;BMP180;9652;49.014;12.052;2023-04-15T07:36:49;96668.00;;;9.80
19040;BMP180;9652;49.014;12.052;2023-04-15T07:39:16;96678.00;;;9.70
19040;BMP180;9652;49.014;12.052;2023-04-15T07:41:44;96682.00;;;9.90
19040;BMP180;9652;49.014;12.052;2023-04-15T07:44:11;96686.00;;;9.90
19040;BMP180;9652;49.014;12.052;2023-04-15T07:46:39;96681.00;;;9.90
19040;BMP180;9652;49.014;12.052;2023-04-15T07:49:06;96687.00;;;10.00
19040;BMP180;9652;49.014;12.052;2023-04-15T07:51:34;96692.00;;;10.00
19040;BMP180;9652;49.014;12.052;2023-04-15T07:54:02;96693.00;;;10.00
19040;BMP180;9652;49.014;12.052;2023-04-15T07:56:29;96695.00;;;10.00
19040;BMP180;9652;49.014;12.052;2023-04-15T07:58:56;96699.00;;;10.00
19040;BMP180;9652;49.014;12.052;2023-04-15T08:01:23;96703.00;;;10.00
19040;BMP180;9652;49.014;12.052;2023-04-15T08:03:51;96695.00;;;10.00
19040;BMP180;9652;49.014;12.052;2023-04-15T08:06:19;96683.00;;;10.00
19040;BMP180;9652;49.014;12.052;2023-04-15T08:08:46;96695.00;;;10.00
19040;BMP180;9652;49.014;12.052;2023-04-15T08:11:13;96701.00;;;10.00
19040;BMP180;9652;49.014;12.052;2023-04-15T08:13:41;96702.00;;;10.00
19040;BMP180;9652;49.014;12.052;2023-04-15T08:16:17;96696.00;;;9.90
19040;BMP180;9652;49.014;12.052;2023-04-15T08:18:45;96700.00;;;10.00
19040;BMP180;9652;49.014;12.052;2023-04-15T08:21:14;96702.00;;;10.00
19040;BMP180;9652;49.014;12.052;2023-04-15T08:23:42;96708.00;;;10.00
19040;BMP180;9652;49.014;12.052;2023-04-15T08:26:09;96695.00;;;10.00
19040;BMP180;9652;49.014;12.052;2023-04-15T08:28:38;96707.00;;;10.10
19040;BMP180;9652;49.014;12.052;2023-04-15T08:31:06;96695.00;;;10.10
19040;BMP180;9652;49.014;12.052;2023-04-15T08:33:33;96710.00;;;10.10
19040;BMP180;9652;49.014;12.052;2023-04-15T08:36:00;96711.00;;;10.10
19040;BMP180;9652;49.014;12.052;2023-04-15T08:38:29;96715.00;;;10.10
19040;BMP180;9652;49.014;12.052;2023-04-15T08:40:59;96721.00;;;10.10
19040;BMP180;9652;49.014;12.052;2023-04-15T08:43:33;96724.00;;;10.20
19040;BMP180;9652;49.014;12.052;2023-04-15T08:46:01;96731.00;;;10.20
19040;BMP180;9652;49.014;12.052;2023-04-15T08:48:32;96732.00;;;10.20
19040;BMP180;9652;49.014;12.052;2023-04-15T08:51:00;96715.00;;;10.20
19040;BMP180;9652;49.014;12.052;2023-04-15T08:53:30;96723.00;;;10.20
19040;BMP180;9652;49.014;12.052;2023-04-15T08:56:03;96721.00;;;10.20
19040;BMP180;9652;49.014;12.052;2023-04-15T08:58:34;96723.00;;;10.20
19040;BMP180;9652;49.014;12.052;2023-04-15T09:01:02;96733.00;;;10.20
19040;BMP180;9652;49.014;12.052;2023-04-15T09:03:29;96678.00;;;10.20
19040;BMP180;9652;49.014;12.052;2023-04-15T09:05:56;96734.00;;;10.20
19040;BMP180;9652;49.014;12.052;2023-04-15T09:08:24;96725.00;;;10.30
19040;BMP180;9652;49.014;12.052;2023-04-15T09:10:53;96733.00;;;10.30
19040;BMP180;9652;49.014;12.052;2023-04-15T09:13:20;96699.00;;;10.30
19040;BMP180;9652;49.014;12.052;2023-04-15T09:15:47;96741.00;;;10.40
19040;BMP180;9652;49.014;12.052;2023-04-15T09:18:27;96743.00;;;10.40
19040;BMP180;9652;49.014;12.052;2023-04-15T09:20:55;96731.00;;;10.50
19040;BMP180;9652;49.014;12.052;2023-04-15T09:23:22;96740.00;;;10.60
19040;BMP180;9652;49.014;12.052;2023-04-15T09:25:51;96740.00;;;10.60
19040;BMP180;9652;49.014;12.052;2023-04-15T09:28:24;96754.00;;;10.60
19040;BMP180;9652;49.014;12.052;2023-04-15T09:30:55;96742.00;;;10.60
19040;BMP180;9652;49.014;12.052;2023-04-15T09:33:23;96745.00;;;10.70
19040;BMP180;9652;49.014;12.052;2023-04-15T09:36:01;96757.00;;;10.70
19040;BMP180;9652;49.014;12.052;2023-04-15T09:38:28;96755.00;;;10.70
19040;BMP180;9652;49.014;12.052;2023-04-15T09:40:57;96768.00;;;10.70
19040;BMP180;9652;49.014;12.052;2023-04-15T09:43:37;96759.00;;;10.70
19040;BMP180;9652;49.014;12.052;2023-04-15T09:46:05;96751.00;;;10.70
19040;BMP180;9652;49.014;12.052;2023-04-15T09:48:32;96759.00;;;10.70
19040;BMP180;9652;49.014;12.052;2023-04-15T09:51:00;96749.00;;;10.70
19040;BMP180;9652;49.014;12.052;2023-04-15T09:53:28;96758.00;;;10.70
19040;BMP180;9652;49.014;12.052;2023-04-15T09:56:02;96765.00;;;10.70
19040;BMP180;9652;49.014;12.052;2023-04-15T09:58:30;96759.00;;;10.70
19040;BMP180;9652;49.014;12.052;2023-04-15T10:01:01;96751.00;;;10.70
19040;BMP180;9652;49.014;12.052;2023-04-15T10:03:30;96761.00;;;10.70
19040;BMP180;9652;49.014;12.052;2023-04-15T10:06:00;96770.00;;;10.80
19040;BMP180;9652;49.014;12.052;2023-04-15T10:08:30;96779.00;;;10.70
19040;BMP180;9652;49.014;12.052;2023-04-15T10:11:01;96747.00;;;10.80
19040;BMP180;9652;49.014;12.052;2023-04-15T10:13:30;96762.00;;;10.80
19040;BMP180;9652;49.014;12.052;2023-04-15T10:16:05;96771.00;;;10.90
19040;BMP180;9652;49.014;12.052;2023-04-15T10:18:37;96757.00;;;10.90
19040;BMP180;9652;49.014;12.052;2023-04-15T10:21:08;96784.00;;;10.90
19040;BMP180;9652;49.014;12.052;2023-04-15T10:23:35;96747.00;;;10.90
19040;BMP180;9652;49.014;12.052;2023-04-15T10:26:05;96776.00;;;10.90
19040;BMP180;9652;49.014;12.052;2023-04-15T10:28:34;96735.00;;;11.00
19040;BMP180;9652;49.014;12.052;2023-04-15T10:31:01;96781.00;;;11.00
19040;BMP180;9652;49.014;12.052;2023-04-15T10:33:31;96769.00;;;11.00
19040;BMP180;9652;49.014;12.052;2023-04-15T10:35:59;96763.00;;;11.00
19040;BMP180;9652;49.014;12.052;2023-04-15T10:38:35;96768.00;;;11.00
19040;BMP180;9652;49.014;12.052;2023-04-15T10:41:18;96777.00;;;11.00
19040;BMP180;9652;49.014;12.052;2023-04-15T10:43:49;96763.00;;;11.10
19040;BMP180;9652;49.014;12.052;2023-04-15T10:46:28;96769.00;;;11.20
19040;BMP180;9652;49.014;12.052;2023-04-15T10:49:07;96742.00;;;11.20
19040;BMP180;9652;49.014;12.052;2023-04-15T10:51:39;96775.00;;;11.30
19040;BMP180;9652;49.014;12.052;2023-04-15T10:54:13;96760.00;;;11.40
19040;BMP180;9652;49.014;12.052;2023-04-15T10:56:43;96772.00;;;11.60
19040;BMP180;9652;49.014;12.052;2023-04-15T10:59:11;96770.00;;;11.70
19040;BMP180;9652;49.014;12.052;2023-04-15T11:01:53;96768.00;;;11.90
19040;BMP180;9652;49.014;12.052;2023-04-15T11:04:53;96772.00;;;12.10
19040;BMP180;9652;49.014;12.052;2023-04-15T11:07:36;96769.00;;;12.20
19040;BMP180;9652;49.014;12.052;2023-04-15T11:10:51;96779.00;;;12.40
19040;BMP180;9652;49.014;12.052;2023-04-15T11:13:26;96774.00;;;12.50
19040;BMP180;9652;49.014;12.052;2023-04-15T11:16:02;96764.00;;;12.70
19040;BMP180;9652;49.014;12.052;2023-04-15T11:18:32;96778.00;;;12.80
19040;BMP180;9652;49.014;12.052;2023-04-15T11:21:03;96785.00;;;12.90
19040;BMP180;9652;49.014;12.052;2023-04-15T11:23:34;96776.00;;;13.00
19040;BMP180;9652;49.014;12.052;2023-04-15T11:26:04;96782.00;;;13.00
19040;BMP180;9652;49.014;12.052;2023-04-15T11:28:36;96783.00;;;13.10
19040;BMP180;9652;49.014;12.052;2023-04-15T11:31:09;96784.00;;;13.10
19040;BMP180;9652;49.014;12.052;2023-04-15T11:33:44;96795.00;;;13.20
19040;BMP180;9652;49.014;12.052;2023-04-15T11:36:12;96797.00;;;13.20
19040;BMP180;9652;49.014;12.052;2023-04-15T11:38:42;96786.00;;;13.30
19040;BMP180;9652;49.014;12.052;2023-04-15T11:41:11;96793.00;;;13.30
19040;BMP180;9652;49.014;12.052;2023-04-15T11:43:39;96808.00;;;13.40
19040;BMP180;9652;49.014;12.052;2023-04-15T11:46:06;96811.00;;;13.50
19040;BMP180;9652;49.014;12.052;2023-04-15T11:48:35;96801.00;;;13.50
19040;BMP180;9652;49.014;12.052;2023-04-15T11:51:05;96797.00;;;13.50
19040;BMP180;9652;49.014;12.052;2023-04-15T11:53:38;96804.00;;;13.60
19040;BMP180;9652;49.014;12.052;2023-04-15T11:56:07;96797.00;;;13.70
19040;BMP180;9652;49.014;12.052;2023-04-15T11:58:36;96816.00;;;13.80
19040;BMP180;9652;49.014;12.052;2023-04-15T12:01:06;96799.00;;;13.80
19040;BMP180;9652;49.014;12.052;2023-04-15T12:03:38;96803.00;;;13.80
19040;BMP180;9652;49.014;12.052;2023-04-15T12:06:09;96815.00;;;13.80
19040;BMP180;9652;49.014;12.052;2023-04-15T12:09:00;96803.00;;;13.80
19040;BMP180;9652;49.014;12.052;2023-04-15T12:11:34;96823.00;;;13.80
19040;BMP180;9652;49.014;12.052;2023-04-15T12:14:08;96828.00;;;13.70
19040;BMP180;9652;49.014;12.052;2023-04-15T12:16:40;96819.00;;;13.70
19040;BMP180;9652;49.014;12.052;2023-04-15T12:19:10;96837.00;;;13.70
19040;BMP180;9652;49.014;12.052;2023-04-15T12:21:41;96837.00;;;13.60
19040;BMP180;9652;49.014;12.052;2023-04-15T12:24:11;96824.00;;;13.50
19040;BMP180;9652;49.014;12.052;2023-04-15T12:26:44;96843.00;;;13.50
19040;BMP180;9652;49.014;12.052;2023-04-15T12:29:13;96857.00;;;13.40
19040;BMP180;9652;49.014;12.052;2023-04-15T12:31:54;96851.00;;;13.40
19040;BMP180;9652;49.014;12.052;2023-04-15T12:34:29;96846.00;;;13.30
19040;BMP180;9652;49.014;12.052;2023-04-15T12:37:00;96850.00;;;13.30
19040;BMP180;9652;49.014;12.052;2023-04-15T12:39:30;96857.00;;;13.20
19040;BMP180;9652;49.014;12.052;2023-04-15T12:41:58;96857.00;;;13.20
19040;BMP180;9652;49.014;12.052;2023-04-15T12:44:27;96862.00;;;13.10
19040;BMP180;9652;49.014;12.052;2023-04-15T12:46:56;96876.00;;;13.00
19040;BMP180;9652;49.014;12.052;2023-04-15T12:49:23;96868.00;;;13.00
19040;BMP180;9652;49.014;12.052;2023-04-15T12:51:52;96876.00;;;12.90
19040;BMP180;9652;49.014;12.052;2023-04-15T12:54:20;96874.00;;;12.90
19040;BMP180;9652;49.014;12.052;2023-04-15T12:56:49;96844.00;;;12.70
19040;BMP180;9652;49.014;12.052;2023-04-15T12:59:17;96880.00;;;12.80
19040;BMP180;9652;49.014;12.052;2023-04-15T13:01:45;96868.00;;;12.80
19040;BMP180;9652;49.014;12.052;2023-04-15T13:04:14;96866.00;;;12.70
19040;BMP180;9652;49.014;12.052;2023-04-15T13:06:42;96888.00;;;12.70
19040;BMP180;9652;49.014;12.052;2023-04-15T13:09:09;96893.00;;;12.70
19040;BMP180;9652;49.014;12.052;2023-04-15T13:11:36;96898.00;;;12.70
19040;BMP180;9652;49.014;12.052;2023-04-15T13:14:06;96899.00;;;12.60
19040;BMP180;9652;49.014;12.052;2023-04-15T13:16:34;96899.00;;;12.60
19040;BMP180;9652;49.014;12.052;2023-04-15T13:19:02;96909.00;;;12.60
19040;BMP180;9652;49.014;12.052;2023-04-15T13:21:32;96926.00;;;12.50
19040;BMP180;9652;49.014;12.052;2023-04-15T13:24:00;96914.00;;;12.50
19040;BMP180;9652;49.014;12.052;2023-04-15T13:26:27;96920.00;;;12.40
19040;BMP180;9652;49.014;12.052;2023-04-15T13:28:54;96906.00;;;12.40
19040;BMP180;9652;49.014;12.052;2023-04-15T13:31:21;96919.00;;;12.40
19040;BMP180;9652;49.014;12.052;2023-04-15T13:33:49;96924.00;;;12.40
19040;BMP180;9652;49.014;12.052;2023-04-15T13:36:16;96902.00;;;12.50
19040;BMP180;9652;49.014;12.052;2023-04-15T13:38:44;96923.00;;;12.50
19040;BMP180;9652;49.014;12.052;2023-04-15T13:41:11;96914.00;;;12.50
19040;BMP180;9652;49.014;12.052;2023-04-15T13:43:38;96926.00;;;12.50
19040;BMP180;9652;49.014;12.052;2023-04-15T13:46:05;96932.00;;;12.40
19040;BMP180;9652;49.014;12.052;2023-04-15T13:48:32;96910.00;;;12.50
19040;BMP180;9652;49.014;12.052;2023-04-15T13:51:00;96896.00;;;12.50
19040;BMP180;9652;49.014;12.052;2023-04-15T13:53:27;96925.00;;;12.50
19040;BMP180;9652;49.014;12.052;2023-04-15T13:55:56;96934.00;;;12.40
19040;BMP180;9652;49.014;12.052;2023-04-15T13:58:23;96931.00;;;12.40
19040;BMP180;9652;49.014;12.052;2023-04-15T14:00:50;96957.00;;;12.30
19040;BMP180;9652;49.014;12.052;2023-04-15T14:03:17;96947.00;;;12.30
19040;BMP180;9652;49.014;12.052;2023-04-15T14:05:44;96938.00;;;12.20
19040;BMP180;9652;49.014;12.052;2023-04-15T14:08:11;96952.00;;;12.20
19040;BMP180;9652;49.014;12.052;2023-04-15T14:10:39;96939.00;;;12.10
19040;BMP180;9652;49.014;12.052;2023-04-15T14:13:10;96959.00;;;12.10
19040;BMP180;9652;49.014;12.052;2023-04-15T14:15:37;96962.00;;;12.10
19040;BMP180;9652;49.014;12.052;2023-04-15T14:18:04;96964.00;;;12.00
19040;BMP180;9652;49.014;12.052;2023-04-15T14:20:31;96961.00;;;12.00